createdAt,value
2022-11-08T00:02:22.926Z,9.82
2022-11-08T00:04:49.950Z,9.18
2022-11-08T00:07:23.761Z,8.93
2022-11-08T00:09:50.821Z,8.70
2022-11-08T00:12:24.778Z,8.75
2022-11-08T00:14:52.152Z,8.68
2022-11-08T00:17:26.770Z,9.38
2022-11-08T00:19:53.758Z,9.40
2022-11-08T00:22:27.726Z,11.95
2022-11-08T00:24:54.677Z,9.75
2022-11-08T00:27:23.763Z,9.10
2022-11-08T00:29:57.737Z,7.65
2022-11-08T00:32:25.532Z,7.85
2022-11-08T00:34:58.931Z,7.45
2022-11-08T00:37:25.966Z,7.07
2022-11-08T00:39:59.829Z,7.07
2022-11-08T00:42:26.854Z,7.20
2022-11-08T00:45:00.798Z,7.63
2022-11-08T00:47:27.734Z,7.50
2022-11-08T00:49:55.163Z,7.68
2022-11-08T00:52:28.770Z,7.40
2022-11-08T00:55:02.925Z,7.82
2022-11-08T00:57:47.250Z,7.93
2022-11-08T01:00:23.772Z,7.82
2022-11-08T01:02:56.754Z,7.10
2022-11-08T01:05:29.774Z,7.32
2022-11-08T01:08:02.789Z,7.35
2022-11-08T01:10:29.890Z,7.40
2022-11-08T01:13:03.847Z,6.97
2022-11-08T01:15:35.696Z,7.22
2022-11-08T01:18:10.827Z,7.22
2022-11-08T01:20:44.828Z,7.43
2022-11-08T01:23:18.862Z,7.80
2022-11-08T01:25:47.454Z,7.93
2022-11-08T01:28:14.760Z,7.35
2022-11-08T01:30:49.880Z,8.25
2022-11-08T01:33:16.946Z,8.70
2022-11-08T01:35:44.879Z,7.93
2022-11-08T01:38:19.136Z,8.05
2022-11-08T01:40:47.581Z,7.90
2022-11-08T01:43:35.844Z,8.27
2022-11-08T01:46:52.841Z,8.57
2022-11-08T01:49:35.811Z,7.65
2022-11-08T01:52:41.799Z,8.10
2022-11-08T01:55:18.976Z,7.80
2022-11-08T01:58:08.827Z,7.88
2022-11-08T02:00:37.524Z,7.82
2022-11-08T02:03:11.800Z,7.55
2022-11-08T02:05:38.759Z,7.28
2022-11-08T02:08:31.791Z,7.10
2022-11-08T02:10:58.764Z,7.30
2022-11-08T02:13:34.886Z,7.72
2022-11-08T02:16:02.994Z,6.88
2022-11-08T02:18:37.817Z,7.50
2022-11-08T02:21:12.222Z,7.43
2022-11-08T02:24:01.850Z,7.55
2022-11-08T02:26:33.013Z,7.50
2022-11-08T02:29:06.834Z,6.85
2022-11-08T02:31:33.764Z,7.15
2022-11-08T02:34:06.786Z,6.80
2022-11-08T02:36:33.722Z,7.95
2022-11-08T02:39:06.828Z,7.85
2022-11-08T02:41:33.765Z,7.35
2022-11-08T02:44:06.821Z,7.05
2022-11-08T02:46:33.754Z,7.72
2022-11-08T02:49:06.884Z,7.80
2022-11-08T02:51:33.887Z,8.27
2022-11-08T02:54:00.829Z,9.88
2022-11-08T02:56:33.833Z,9.15
2022-11-08T02:59:00.830Z,8.95
2022-11-08T03:01:33.950Z,9.20
2022-11-08T03:04:01.035Z,9.73
2022-11-08T03:06:34.832Z,10.40
2022-11-08T03:09:01.861Z,9.52
2022-11-08T03:11:35.868Z,9.15
2022-11-08T03:14:02.873Z,8.50
2022-11-08T03:16:36.853Z,9.13
2022-11-08T03:19:03.848Z,8.48
2022-11-08T03:21:36.934Z,9.02
2022-11-08T03:24:11.850Z,8.52
2022-11-08T03:26:38.720Z,9.30
2022-11-08T03:29:11.944Z,9.00
2022-11-08T03:31:45.835Z,9.27
2022-11-08T03:34:12.861Z,8.93
2022-11-08T03:36:39.873Z,8.77
2022-11-08T03:39:12.855Z,8.73
2022-11-08T03:41:39.775Z,9.32
2022-11-08T03:44:12.856Z,9.00
2022-11-08T03:46:39.775Z,9.05
2022-11-08T03:49:12.867Z,8.55
2022-11-08T03:51:40.085Z,8.40
2022-11-08T03:54:07.026Z,9.45
2022-11-08T03:56:40.885Z,8.60
2022-11-08T03:59:07.842Z,8.55
2022-11-08T04:01:40.959Z,9.50
2022-11-08T04:04:08.055Z,9.65
2022-11-08T04:06:41.893Z,8.27
2022-11-08T04:09:20.468Z,8.73
2022-11-08T04:11:54.851Z,9.32
2022-11-08T04:14:21.830Z,9.43
2022-11-08T04:16:54.888Z,9.23
2022-11-08T04:19:22.109Z,8.10
2022-11-08T04:21:56.927Z,8.82
2022-11-08T04:24:23.915Z,9.07
2022-11-08T04:26:50.921Z,9.48
2022-11-08T04:29:24.873Z,8.95
2022-11-08T04:31:51.817Z,8.43
2022-11-08T04:34:24.885Z,8.05
2022-11-08T04:36:51.908Z,7.85
2022-11-08T04:39:25.890Z,8.48
2022-11-08T04:41:56.433Z,7.97
2022-11-08T04:44:32.889Z,7.35
2022-11-08T04:46:59.844Z,8.00
2022-11-08T04:49:32.870Z,8.10
2022-11-08T04:52:05.866Z,8.13
2022-11-08T04:54:38.887Z,8.00
2022-11-08T04:57:05.855Z,9.02
2022-11-08T04:59:38.897Z,8.68
2022-11-08T05:02:06.022Z,8.38
2022-11-08T05:04:39.885Z,7.65
2022-11-08T05:07:06.836Z,8.38
2022-11-08T05:09:39.926Z,8.82
2022-11-08T05:12:13.751Z,8.80
2022-11-08T05:14:46.953Z,9.55
2022-11-08T05:17:20.943Z,9.60
2022-11-08T05:19:53.879Z,9.63
2022-11-08T05:22:20.872Z,8.98
2022-11-08T05:24:53.915Z,9.40
2022-11-08T05:27:26.898Z,9.18
2022-11-08T05:29:53.856Z,8.60
2022-11-08T05:32:26.931Z,8.32
2022-11-08T05:34:53.892Z,8.15
2022-11-08T05:37:26.916Z,10.15
2022-11-08T05:39:53.891Z,9.52
2022-11-08T05:42:20.787Z,9.45
2022-11-08T05:44:53.935Z,10.00
2022-11-08T05:47:21.071Z,8.77
2022-11-08T05:49:54.940Z,8.90
2022-11-08T05:52:21.836Z,8.57
2022-11-08T05:54:54.896Z,8.52
2022-11-08T05:57:22.533Z,9.00
2022-11-08T05:59:55.894Z,8.75
2022-11-08T06:02:22.940Z,9.27
2022-11-08T06:04:56.916Z,8.85
2022-11-08T06:07:23.910Z,8.38
2022-11-08T06:09:56.908Z,8.63
2022-11-08T06:12:23.796Z,8.02
2022-11-08T06:14:56.925Z,8.50
2022-11-08T06:17:27.675Z,8.13
2022-11-08T06:20:03.912Z,7.93
2022-11-08T06:22:31.642Z,7.55
2022-11-08T06:25:04.906Z,8.43
2022-11-08T06:27:31.834Z,8.38
2022-11-08T06:30:05.004Z,8.55
2022-11-08T06:32:31.920Z,8.50
2022-11-08T06:34:58.828Z,8.68
2022-11-08T06:37:31.920Z,8.45
2022-11-08T06:40:04.944Z,8.27
2022-11-08T06:42:31.938Z,7.72
2022-11-08T06:45:05.029Z,9.20
2022-11-08T06:47:37.925Z,7.85
2022-11-08T06:50:05.781Z,8.57
2022-11-08T06:52:39.183Z,9.48
2022-11-08T06:55:06.432Z,8.07
2022-11-08T06:57:39.934Z,8.82
2022-11-08T07:00:07.728Z,8.20
2022-11-08T07:02:42.636Z,10.13
2022-11-08T07:05:10.759Z,10.40
2022-11-08T07:07:43.964Z,8.55
2022-11-08T07:10:10.935Z,10.23
2022-11-08T07:12:43.978Z,11.68
2022-11-08T07:15:11.190Z,13.43
2022-11-08T07:17:44.990Z,18.30
2022-11-08T07:20:12.420Z,18.83
2022-11-08T07:22:39.395Z,18.10
2022-11-08T07:25:14.335Z,17.10
2022-11-08T07:27:48.010Z,15.13
2022-11-08T07:30:21.949Z,11.60
2022-11-08T07:32:48.832Z,9.85
2022-11-08T07:35:21.977Z,8.38
2022-11-08T07:37:49.049Z,8.60
2022-11-08T07:40:22.937Z,9.38
2022-11-08T07:43:10.470Z,8.75
2022-11-08T07:45:43.034Z,8.05
2022-11-08T07:48:13.215Z,8.20
2022-11-08T07:50:47.953Z,9.07
2022-11-08T07:53:15.139Z,7.93
2022-11-08T07:55:49.050Z,9.20
2022-11-08T07:58:16.307Z,9.32
2022-11-08T08:00:50.986Z,8.82
2022-11-08T08:03:25.133Z,8.25
2022-11-08T08:05:56.595Z,10.15
2022-11-08T08:08:32.995Z,11.80
2022-11-08T08:11:00.379Z,11.40
2022-11-08T08:13:33.982Z,9.52
2022-11-08T08:16:01.135Z,8.15
2022-11-08T08:18:35.949Z,8.40
2022-11-08T08:21:02.849Z,8.52
2022-11-08T08:23:36.017Z,8.25
2022-11-08T08:26:02.874Z,7.53
2022-11-08T08:28:36.056Z,7.97
2022-11-08T08:31:05.139Z,8.07
2022-11-08T08:33:39.300Z,7.45
2022-11-08T08:36:06.899Z,8.32
2022-11-08T08:38:44.592Z,7.20
2022-11-08T08:41:11.873Z,7.53
2022-11-08T08:43:44.992Z,7.80
2022-11-08T08:46:12.059Z,7.50
2022-11-08T08:48:39.031Z,7.07
2022-11-08T08:51:13.274Z,7.03
2022-11-08T08:53:40.380Z,7.82
2022-11-08T08:56:16.049Z,8.35
2022-11-08T08:58:43.328Z,8.02
2022-11-08T09:04:04.975Z,7.22
2022-11-08T09:06:39.111Z,8.15
2022-11-08T09:09:06.097Z,9.13
2022-11-08T09:11:40.089Z,8.88
2022-11-08T09:14:07.081Z,8.68
2022-11-08T09:16:41.052Z,9.93
2022-11-08T09:19:08.140Z,13.60
2022-11-08T09:21:45.196Z,14.60
2022-11-08T09:24:14.736Z,14.20
2022-11-08T09:26:49.317Z,13.93
2022-11-08T09:29:16.497Z,13.25
2022-11-08T09:31:43.507Z,14.05
2022-11-08T09:34:20.523Z,13.63
2022-11-08T09:36:49.168Z,13.27
2022-11-08T09:39:23.094Z,12.40
2022-11-08T09:42:23.024Z,12.85
2022-11-08T09:45:16.100Z,12.18
2022-11-08T09:47:53.116Z,11.35
2022-11-08T09:50:41.087Z,10.40
2022-11-08T09:54:00.082Z,10.32
2022-11-08T09:56:42.332Z,9.80
2022-11-08T09:59:39.841Z,8.90
2022-11-08T10:02:28.003Z,9.00
2022-11-08T10:05:05.091Z,9.13
2022-11-08T10:08:08.006Z,9.57
2022-11-08T10:11:19.058Z,7.75
2022-11-08T10:14:04.020Z,8.25
2022-11-08T10:16:51.009Z,10.15
2022-11-08T10:19:55.065Z,10.07
2022-11-08T10:23:06.077Z,9.32
2022-11-08T10:25:49.347Z,10.00
2022-11-08T10:28:27.100Z,10.57
2022-11-08T10:30:54.626Z,10.13
2022-11-08T10:33:44.097Z,9.85
2022-11-08T10:36:49.026Z,8.38
2022-11-08T10:39:20.290Z,8.23
2022-11-08T10:41:55.161Z,8.68
2022-11-08T10:44:23.389Z,9.13
2022-11-08T10:47:03.141Z,9.15
2022-11-08T10:49:43.045Z,8.38
2022-11-08T10:52:23.063Z,8.32
2022-11-08T10:54:54.156Z,8.68
2022-11-08T10:57:39.073Z,7.40
2022-11-08T11:00:35.509Z,7.93
2022-11-08T11:03:18.081Z,7.88
2022-11-08T11:06:07.061Z,7.88
2022-11-08T11:08:40.042Z,8.30
2022-11-08T11:11:34.101Z,7.78
2022-11-08T11:14:22.555Z,7.22
2022-11-08T11:17:11.116Z,7.22
2022-11-08T11:19:38.035Z,6.78
2022-11-08T11:22:13.399Z,8.18
2022-11-08T11:24:52.752Z,7.70
2022-11-08T11:27:46.073Z,9.05
2022-11-08T11:30:18.814Z,7.60
2022-11-08T11:33:09.085Z,7.78
2022-11-08T11:35:51.315Z,7.85
2022-11-08T11:38:37.131Z,7.95
2022-11-08T11:41:12.595Z,7.90
2022-11-08T11:43:54.095Z,7.82
2022-11-08T11:46:24.643Z,7.55
2022-11-08T11:49:08.080Z,6.78
2022-11-08T11:51:35.047Z,6.65
2022-11-08T11:54:09.081Z,6.82
2022-11-08T11:57:01.669Z,6.88
2022-11-08T12:00:02.070Z,7.10
2022-11-08T12:03:22.121Z,7.55
2022-11-08T12:06:27.142Z,7.13
2022-11-08T12:09:18.183Z,7.40
2022-11-08T12:11:57.029Z,7.05
2022-11-08T12:15:29.203Z,7.60
2022-11-08T12:18:36.599Z,7.45
2022-11-08T12:21:43.260Z,7.00
2022-11-08T12:24:40.138Z,7.43
2022-11-08T12:27:51.126Z,7.05
2022-11-08T12:30:36.971Z,7.47
2022-11-08T12:33:13.138Z,6.63
2022-11-08T12:36:35.636Z,6.47
2022-11-08T12:39:36.183Z,6.43
2022-11-08T12:42:46.321Z,6.88
2022-11-08T12:45:52.614Z,6.47
2022-11-08T12:48:55.187Z,6.30
2022-11-08T12:51:43.011Z,5.95
2022-11-08T12:54:36.197Z,6.30
2022-11-08T12:57:28.336Z,6.32
2022-11-08T13:00:05.967Z,6.10
2022-11-08T13:02:43.152Z,6.28
2022-11-08T13:05:29.392Z,5.78
2022-11-08T13:08:25.178Z,6.25
2022-11-08T13:11:04.188Z,7.13
2022-11-08T13:13:58.198Z,6.38
2022-11-08T13:16:28.036Z,5.78
2022-11-08T13:19:03.149Z,7.20
2022-11-08T13:21:30.053Z,6.90
2022-11-08T13:24:43.753Z,5.80
2022-11-08T13:27:38.210Z,6.13
2022-11-08T13:30:25.005Z,7.07
2022-11-08T13:33:10.169Z,7.22
2022-11-08T13:36:11.212Z,6.82
2022-11-08T13:39:40.095Z,6.85
2022-11-08T13:42:19.497Z,7.97
2022-11-08T13:45:02.736Z,7.30
2022-11-08T13:47:33.594Z,7.65
2022-11-08T13:50:35.670Z,6.82
2022-11-08T13:53:53.701Z,6.38
2022-11-08T13:57:00.685Z,7.80
2022-11-08T13:59:31.736Z,8.07
2022-11-08T14:02:06.674Z,6.95
2022-11-08T14:04:40.084Z,6.90
2022-11-08T14:07:33.224Z,6.93
2022-11-08T14:10:49.456Z,8.13
2022-11-08T14:14:16.270Z,7.30
2022-11-08T14:16:59.278Z,7.07
2022-11-08T14:19:38.723Z,6.47
2022-11-08T14:22:21.172Z,6.88
2022-11-08T14:24:57.761Z,6.78
2022-11-08T14:27:39.691Z,6.88
2022-11-08T14:30:26.074Z,6.43
2022-11-08T14:33:27.767Z,6.53
2022-11-08T14:36:03.094Z,7.55
2022-11-08T14:38:40.708Z,6.68
2022-11-08T14:41:09.580Z,6.78
2022-11-08T14:43:52.563Z,6.90
2022-11-08T14:46:35.573Z,6.55
2022-11-08T14:49:30.687Z,6.25
2022-11-08T14:52:17.101Z,6.80
2022-11-08T14:54:53.715Z,6.43
2022-11-08T14:57:50.625Z,7.13
2022-11-08T15:00:24.166Z,7.10
2022-11-08T15:03:06.690Z,6.82
2022-11-08T15:05:48.773Z,6.68
2022-11-08T15:08:57.647Z,6.57
2022-11-08T15:11:31.364Z,6.82
2022-11-08T15:14:14.716Z,6.45
2022-11-08T15:16:50.388Z,6.70
2022-11-08T15:19:46.695Z,6.07
2022-11-08T15:22:33.193Z,7.97
2022-11-08T15:25:41.669Z,6.47
2022-11-08T15:28:22.414Z,8.93
2022-11-08T15:31:08.734Z,11.18
2022-11-08T15:33:39.110Z,8.30
2022-11-08T15:36:25.824Z,8.18
2022-11-08T15:38:53.661Z,7.38
2022-11-08T15:41:47.698Z,6.97
2022-11-08T15:44:25.245Z,9.15
2022-11-08T15:47:00.706Z,9.07
2022-11-08T15:49:36.742Z,10.73
2022-11-08T15:52:04.869Z,9.30
2022-11-08T15:54:39.926Z,7.00
2022-11-08T15:57:08.162Z,7.03
2022-11-08T15:59:43.040Z,7.03
2022-11-08T16:02:14.758Z,6.57
2022-11-08T16:04:50.161Z,7.22
2022-11-08T16:07:18.649Z,11.05
2022-11-08T16:09:56.068Z,10.18
2022-11-08T16:12:27.076Z,9.52
2022-11-08T16:15:00.367Z,10.13
2022-11-08T16:17:27.516Z,9.88
2022-11-08T16:20:01.592Z,9.75
2022-11-08T16:22:28.604Z,8.07
2022-11-08T16:25:02.396Z,7.63
2022-11-08T16:27:29.470Z,7.95
2022-11-08T16:30:03.325Z,8.38
2022-11-08T16:32:30.964Z,7.13
2022-11-08T16:34:58.419Z,8.07
2022-11-08T16:37:32.489Z,8.43
2022-11-08T16:40:00.228Z,8.05
2022-11-08T16:42:34.345Z,10.73
2022-11-08T16:45:01.741Z,10.38
2022-11-08T16:47:35.380Z,7.65
2022-11-08T16:50:02.538Z,7.07
2022-11-08T16:52:37.862Z,7.15
2022-11-08T16:55:12.713Z,7.68
2022-11-08T16:57:50.300Z,7.45
2022-11-08T17:00:20.549Z,7.78
2022-11-08T17:02:59.745Z,7.63
2022-11-08T17:05:27.308Z,7.95
2022-11-08T17:08:01.669Z,7.70
2022-11-08T17:10:30.526Z,7.20
2022-11-08T17:13:24.191Z,8.02
2022-11-08T17:15:56.307Z,6.82
2022-11-08T17:18:33.174Z,7.32
2022-11-08T17:21:37.908Z,6.97
2022-11-08T17:24:01.886Z,7.55
2022-11-08T17:26:29.861Z,7.38
2022-11-08T17:29:03.865Z,7.43
2022-11-08T17:31:32.155Z,6.32
2022-11-08T17:34:07.740Z,5.95
2022-11-08T17:36:55.056Z,6.78
2022-11-08T17:39:42.050Z,5.80
2022-11-08T17:42:14.459Z,7.05
2022-11-08T17:44:51.167Z,6.85
2022-11-08T17:47:21.499Z,6.22
2022-11-08T17:50:01.182Z,7.15
2022-11-08T17:52:30.302Z,8.30
2022-11-08T17:55:08.479Z,8.85
2022-11-08T17:57:43.439Z,7.53
2022-11-08T18:00:15.228Z,8.15
2022-11-08T18:02:53.958Z,9.27
2022-11-08T18:05:29.162Z,8.90
2022-11-08T18:07:57.257Z,7.90
2022-11-08T18:10:32.659Z,8.25
2022-11-08T18:13:05.058Z,8.35
2022-11-08T18:15:42.189Z,8.75
2022-11-08T18:18:11.958Z,8.88
2022-11-08T18:20:47.514Z,8.00
2022-11-08T18:23:16.097Z,12.50
2022-11-08T18:26:00.401Z,10.32
2022-11-08T18:28:28.322Z,9.68
2022-11-08T18:31:02.905Z,9.57
2022-11-08T18:33:35.291Z,10.80
2022-11-08T18:36:25.589Z,9.75
2022-11-08T18:39:03.579Z,10.88
2022-11-08T18:41:42.504Z,10.70
2022-11-08T18:44:12.512Z,9.93
2022-11-08T18:46:49.252Z,9.93
2022-11-08T18:49:18.460Z,10.30
2022-11-08T18:51:59.118Z,11.00
2022-11-08T18:54:31.410Z,9.63
2022-11-08T18:57:07.326Z,9.10
2022-11-08T18:59:39.970Z,9.75
2022-11-08T19:02:21.099Z,9.13
2022-11-08T19:04:56.964Z,9.13
2022-11-08T19:07:27.117Z,9.90
2022-11-08T19:10:06.256Z,9.23
2022-11-08T19:12:35.699Z,11.85
2022-11-08T19:15:15.292Z,19.63
2022-11-08T19:17:49.822Z,14.38
2022-11-08T19:20:30.350Z,10.88
2022-11-08T19:22:59.025Z,9.93
2022-11-08T19:25:37.377Z,9.95
2022-11-08T19:28:11.583Z,10.48
2022-11-08T19:30:48.332Z,10.48
2022-11-08T19:33:18.817Z,10.77
2022-11-08T19:35:54.255Z,10.88
2022-11-08T19:38:23.997Z,11.70
2022-11-08T19:41:02.337Z,11.75
2022-11-08T19:43:33.601Z,11.57
2022-11-08T19:46:14.375Z,12.15
2022-11-08T19:48:45.604Z,14.20
2022-11-08T19:51:27.866Z,12.88
2022-11-08T19:54:10.691Z,11.85
2022-11-08T19:57:04.304Z,11.50
2022-11-08T19:59:33.904Z,11.15
2022-11-08T20:02:16.900Z,12.60
2022-11-08T20:04:45.163Z,11.52
2022-11-08T20:07:25.861Z,14.40
2022-11-08T20:09:56.167Z,13.98
2022-11-08T20:12:30.950Z,12.95
2022-11-08T20:15:06.325Z,11.63
2022-11-08T20:17:45.435Z,13.32
2022-11-08T20:20:17.502Z,12.30
2022-11-08T20:22:54.366Z,12.45
2022-11-08T20:25:28.345Z,11.02
2022-11-08T20:28:14.435Z,12.00
2022-11-08T20:30:44.177Z,13.13
2022-11-08T20:33:19.336Z,12.07
2022-11-08T20:35:49.854Z,13.20
2022-11-08T20:38:30.885Z,12.13
2022-11-08T20:41:02.427Z,12.07
2022-11-08T20:43:41.233Z,13.95
2022-11-08T20:46:18.725Z,13.85
2022-11-08T20:49:00.257Z,14.07
2022-11-08T20:51:29.129Z,15.27
2022-11-08T20:54:05.404Z,14.70
2022-11-08T20:56:36.688Z,15.15
2022-11-08T20:59:11.913Z,13.15
2022-11-08T21:01:42.410Z,13.60
2022-11-08T21:04:19.990Z,13.60
2022-11-08T21:07:00.609Z,13.95
2022-11-08T21:09:50.540Z,12.82
2022-11-08T21:12:28.762Z,13.18
2022-11-08T21:15:06.170Z,12.25
2022-11-08T21:17:37.714Z,13.27
2022-11-08T21:20:16.176Z,12.77
2022-11-08T21:22:46.032Z,13.40
2022-11-08T21:25:22.344Z,13.32
2022-11-08T21:27:58.233Z,12.23
2022-11-08T21:30:27.369Z,13.80
2022-11-08T21:33:03.378Z,12.70
2022-11-08T21:35:31.832Z,12.18
2022-11-08T21:38:08.507Z,12.10
2022-11-08T21:40:38.229Z,13.20
2022-11-08T21:43:13.954Z,12.05
2022-11-08T21:45:50.330Z,14.65
2022-11-08T21:48:18.928Z,17.83
2022-11-08T21:50:54.345Z,13.43
2022-11-08T21:53:23.732Z,12.75
2022-11-08T21:56:05.100Z,12.50
2022-11-08T21:58:46.134Z,12.68
2022-11-08T22:01:26.998Z,12.43
2022-11-08T22:04:00.598Z,14.75
2022-11-08T22:06:46.450Z,15.80
2022-11-08T22:09:24.168Z,14.05
2022-11-08T22:11:54.586Z,14.70
2022-11-08T22:14:29.458Z,14.43
2022-11-08T22:16:59.495Z,14.52
2022-11-08T22:19:37.445Z,16.55
2022-11-08T22:22:05.491Z,18.25
2022-11-08T22:24:39.966Z,14.15
2022-11-08T22:27:22.144Z,12.80
2022-11-08T22:29:56.960Z,12.75
2022-11-08T22:32:25.948Z,12.65
2022-11-08T22:35:02.063Z,12.80
2022-11-08T22:37:32.822Z,11.95
2022-11-08T22:40:11.679Z,12.80
2022-11-08T22:42:44.343Z,13.93
2022-11-08T22:45:19.164Z,13.60
2022-11-08T22:47:47.721Z,13.52
2022-11-08T22:50:23.952Z,13.88
2022-11-08T22:52:52.263Z,14.50
2022-11-08T22:55:27.164Z,15.77
2022-11-08T22:57:56.771Z,13.90
2022-11-08T23:00:35.188Z,12.32
2022-11-08T23:03:03.626Z,11.68
2022-11-08T23:05:39.023Z,11.13
2022-11-08T23:08:07.307Z,11.73
2022-11-08T23:10:35.613Z,11.85
2022-11-08T23:13:10.105Z,12.68
2022-11-08T23:15:44.914Z,11.68
2022-11-08T23:18:13.085Z,11.25
2022-11-08T23:20:46.714Z,11.77
2022-11-08T23:23:14.524Z,12.02
2022-11-08T23:25:42.248Z,11.60
2022-11-08T23:28:16.865Z,11.77
2022-11-08T23:30:50.901Z,11.75
2022-11-08T23:33:24.699Z,12.60
2022-11-08T23:36:04.451Z,12.77
2022-11-08T23:38:37.623Z,12.93
2022-11-08T23:41:11.621Z,12.93
2022-11-08T23:43:38.791Z,13.35
2022-11-08T23:46:14.562Z,13.07
2022-11-08T23:48:41.594Z,12.77
2022-11-08T23:51:15.558Z,12.27
2022-11-08T23:53:49.592Z,12.50
2022-11-08T23:56:21.360Z,10.80
2022-11-08T23:58:54.622Z,12.10
